createdAt,value
2023-05-14T00:00:04.547Z,85537.19
2023-05-14T00:02:30.757Z,85542.97
2023-05-14T00:04:56.888Z,85526.91
2023-05-14T00:07:23.010Z,85527.97
2023-05-14T00:09:49.127Z,85525.75
2023-05-14T00:12:15.211Z,85531.44
2023-05-14T00:14:41.316Z,85532.09
2023-05-14T00:17:07.391Z,85528.06
2023-05-14T00:19:33.478Z,85524.03
2023-05-14T00:21:59.619Z,85528.03
2023-05-14T00:24:25.742Z,85524.72
2023-05-14T00:26:51.835Z,85529.00
2023-05-14T00:29:17.933Z,85524.28
2023-05-14T00:31:44.212Z,85523.16
2023-05-14T00:34:10.457Z,85525.50
2023-05-14T00:36:36.565Z,85519.00
2023-05-14T00:39:03.151Z,85520.16
2023-05-14T00:41:29.240Z,85519.25
2023-05-14T00:43:55.336Z,85523.41
2023-05-14T00:46:21.433Z,85522.19
2023-05-14T00:48:47.546Z,85514.06
2023-05-14T00:51:13.809Z,85512.97
2023-05-14T00:53:39.934Z,85515.81
2023-05-14T00:56:06.067Z,85517.84
2023-05-14T00:58:32.164Z,85516.25
2023-05-14T01:00:58.287Z,85514.72
2023-05-14T01:03:24.500Z,85519.78
2023-05-14T01:05:50.633Z,85511.81
2023-05-14T01:08:16.748Z,85515.88
2023-05-14T01:10:42.844Z,85511.69
2023-05-14T01:13:08.965Z,85506.03
2023-05-14T01:15:35.073Z,85507.50
2023-05-14T01:18:01.198Z,85507.94
2023-05-14T01:20:27.333Z,85504.31
2023-05-14T01:22:53.457Z,85504.88
2023-05-14T01:25:19.563Z,85500.28
2023-05-14T01:27:45.662Z,85499.28
2023-05-14T01:30:11.760Z,85498.56
2023-05-14T01:32:37.918Z,85494.03
2023-05-14T01:35:04.013Z,85496.59
2023-05-14T01:37:30.131Z,85498.78
2023-05-14T01:39:56.307Z,85484.63
2023-05-14T01:42:22.393Z,85487.34
2023-05-14T01:44:48.487Z,85495.09
2023-05-14T01:47:14.581Z,85487.88
2023-05-14T01:49:40.678Z,85488.66
2023-05-14T01:52:06.795Z,85479.72
2023-05-14T01:54:32.922Z,85481.19
2023-05-14T01:56:59.018Z,85479.59
2023-05-14T01:59:25.111Z,85479.00
2023-05-14T02:01:51.325Z,85482.09
2023-05-14T02:04:17.631Z,85482.97
2023-05-14T02:06:43.792Z,85472.19
2023-05-14T02:09:09.906Z,85473.50
2023-05-14T02:11:36.012Z,85474.81
2023-05-14T02:14:02.107Z,85476.72
2023-05-14T02:16:28.286Z,85477.84
2023-05-14T02:18:54.476Z,85478.22
2023-05-14T02:21:20.654Z,85475.88
2023-05-14T02:23:46.760Z,85477.38
2023-05-14T02:26:12.960Z,85479.72
2023-05-14T02:28:39.124Z,85474.38
2023-05-14T02:31:05.299Z,85478.31
2023-05-14T02:33:31.544Z,85478.41
2023-05-14T02:35:57.742Z,85482.19
2023-05-14T02:38:24.173Z,85478.56
2023-05-14T02:40:50.315Z,85473.47
2023-05-14T02:43:16.408Z,85474.28
2023-05-14T02:45:43.582Z,85472.00
2023-05-14T02:48:09.755Z,85466.13
2023-05-14T02:50:35.903Z,85460.66
2023-05-14T02:53:02.014Z,85460.72
2023-05-14T02:55:28.135Z,85462.06
2023-05-14T02:57:54.265Z,85465.59
2023-05-14T03:00:20.405Z,85466.91
2023-05-14T03:02:47.102Z,85456.81
2023-05-14T03:05:13.676Z,85455.78
2023-05-14T03:07:39.771Z,85450.41
2023-05-14T03:10:05.881Z,85453.94
2023-05-14T03:12:31.988Z,85455.34
2023-05-14T03:14:58.119Z,85449.97
2023-05-14T03:17:24.280Z,85448.13
2023-05-14T03:19:50.454Z,85447.97
2023-05-14T03:22:16.559Z,85451.78
2023-05-14T03:24:42.688Z,85457.38
2023-05-14T03:27:08.796Z,85457.34
2023-05-14T03:29:34.919Z,85456.59
2023-05-14T03:32:01.032Z,85452.78
2023-05-14T03:34:27.126Z,85457.41
2023-05-14T03:36:53.223Z,85457.91
2023-05-14T03:39:19.341Z,85455.50
2023-05-14T03:41:45.454Z,85462.28
2023-05-14T03:44:11.631Z,85460.59
2023-05-14T03:46:37.747Z,85459.75
2023-05-14T03:49:03.974Z,85459.88
2023-05-14T03:51:30.153Z,85449.25
2023-05-14T03:53:56.256Z,85454.63
2023-05-14T03:56:22.376Z,85446.97
2023-05-14T03:58:48.479Z,85448.69
2023-05-14T04:01:14.571Z,85446.84
2023-05-14T04:03:40.837Z,85449.53
2023-05-14T04:06:07.163Z,85456.03
2023-05-14T04:08:33.264Z,85451.28
2023-05-14T04:10:59.383Z,85451.88
2023-05-14T04:13:25.478Z,85454.69
2023-05-14T04:15:51.603Z,85455.59
2023-05-14T04:18:17.724Z,85455.69
2023-05-14T04:20:43.833Z,85451.22
2023-05-14T04:23:09.936Z,85453.41
2023-05-14T04:25:36.018Z,85450.03
2023-05-14T04:28:02.117Z,85450.88
2023-05-14T04:30:28.213Z,85448.91
2023-05-14T04:32:54.350Z,85448.91
2023-05-14T04:35:22.085Z,85445.00
2023-05-14T04:37:49.519Z,85445.97
2023-05-14T04:40:15.637Z,85451.03
2023-05-14T04:42:41.721Z,85451.94
2023-05-14T04:45:07.836Z,85450.81
2023-05-14T04:47:34.036Z,85451.22
2023-05-14T04:50:00.400Z,85454.63
2023-05-14T04:52:26.527Z,85453.28
2023-05-14T04:54:52.700Z,85453.69
2023-05-14T04:57:18.875Z,85456.03
2023-05-14T04:59:44.968Z,85452.06
2023-05-14T05:02:11.076Z,85452.00
2023-05-14T05:04:37.184Z,85451.22
2023-05-14T05:07:03.290Z,85452.44
2023-05-14T05:09:29.406Z,85451.25
2023-05-14T05:11:55.494Z,85447.06
2023-05-14T05:14:21.610Z,85442.34
2023-05-14T05:16:47.718Z,85444.81
2023-05-14T05:19:13.922Z,85445.88
2023-05-14T05:21:40.097Z,85442.56
2023-05-14T05:24:06.208Z,85444.19
2023-05-14T05:26:32.334Z,85448.22
2023-05-14T05:28:58.444Z,85445.78
2023-05-14T05:31:24.615Z,85447.31
2023-05-14T05:33:50.750Z,85448.69
2023-05-14T05:36:16.835Z,85446.16
2023-05-14T05:38:42.935Z,85451.53
2023-05-14T05:41:09.051Z,85443.63
2023-05-14T05:43:35.178Z,85443.22
2023-05-14T05:46:01.314Z,85445.22
2023-05-14T05:48:27.480Z,85437.41
2023-05-14T05:50:53.624Z,85445.19
2023-05-14T05:53:19.706Z,85447.53
2023-05-14T05:55:45.819Z,85438.81
2023-05-14T05:58:11.940Z,85445.00
2023-05-14T06:00:38.062Z,85440.91
2023-05-14T06:03:04.261Z,85443.13
2023-05-14T06:05:30.442Z,85451.78
2023-05-14T06:07:56.603Z,85449.16
2023-05-14T06:10:22.823Z,85445.47
2023-05-14T06:12:49.136Z,85435.44
2023-05-14T06:15:15.256Z,85433.31
2023-05-14T06:17:41.397Z,85430.47
2023-05-14T06:20:07.519Z,85433.13
2023-05-14T06:22:33.647Z,85425.09
2023-05-14T06:24:59.778Z,85421.50
2023-05-14T06:27:25.890Z,85416.25
2023-05-14T06:29:52.139Z,85415.97
2023-05-14T06:32:18.407Z,85418.91
2023-05-14T06:34:44.561Z,85414.41
2023-05-14T06:37:10.681Z,85410.28
2023-05-14T06:39:36.772Z,85404.91
2023-05-14T06:42:02.878Z,85413.13
2023-05-14T06:44:29.033Z,85407.13
2023-05-14T06:46:55.215Z,85408.09
2023-05-14T06:49:21.339Z,85414.16
2023-05-14T06:51:47.437Z,85415.41
2023-05-14T06:54:13.558Z,85416.34
2023-05-14T06:56:39.681Z,85419.75
2023-05-14T06:59:05.787Z,85410.91
2023-05-14T07:01:31.920Z,85405.28
2023-05-14T07:03:58.131Z,85414.81
2023-05-14T07:06:24.269Z,85412.66
2023-05-14T07:08:50.406Z,85407.19
2023-05-14T07:11:16.562Z,85415.03
2023-05-14T07:13:42.657Z,85416.34
2023-05-14T07:16:08.765Z,85416.81
2023-05-14T07:18:34.904Z,85432.22
2023-05-14T07:21:01.046Z,85423.03
2023-05-14T07:23:27.165Z,85426.63
2023-05-14T07:25:53.287Z,85428.41
2023-05-14T07:28:19.415Z,85426.34
2023-05-14T07:30:45.514Z,85433.44
2023-05-14T07:33:12.006Z,85433.03
2023-05-14T07:35:38.163Z,85434.66
2023-05-14T07:38:04.318Z,85431.03
2023-05-14T07:40:30.428Z,85428.50
2023-05-14T07:42:56.566Z,85432.16
2023-05-14T07:45:22.788Z,85430.50
2023-05-14T07:47:49.003Z,85433.78
2023-05-14T07:50:15.195Z,85428.78
2023-05-14T07:52:41.312Z,85430.84
2023-05-14T07:55:07.458Z,85421.50
2023-05-14T07:57:33.940Z,85420.88
2023-05-14T08:00:00.089Z,85420.47
2023-05-14T08:02:26.278Z,85411.53
2023-05-14T08:04:52.457Z,85412.81
2023-05-14T08:07:18.578Z,85416.59
2023-05-14T08:09:44.670Z,85413.09
2023-05-14T08:12:10.768Z,85406.66
2023-05-14T08:14:37.255Z,85411.91
2023-05-14T08:17:03.491Z,85408.72
2023-05-14T08:19:29.655Z,85409.38
2023-05-14T08:21:55.780Z,85397.50
2023-05-14T08:24:21.918Z,85397.25
2023-05-14T08:26:48.064Z,85394.28
2023-05-14T08:29:16.271Z,85398.63
2023-05-14T08:31:42.919Z,85396.88
2023-05-14T08:34:09.013Z,85388.47
2023-05-14T08:36:35.132Z,85387.94
2023-05-14T08:39:01.222Z,85390.75
2023-05-14T08:41:27.316Z,85390.06
2023-05-14T08:43:53.427Z,85387.25
2023-05-14T08:46:19.539Z,85397.03
2023-05-14T08:48:45.677Z,85399.13
2023-05-14T08:51:11.831Z,85392.34
2023-05-14T08:53:38.012Z,85392.41
2023-05-14T08:56:04.132Z,85393.19
2023-05-14T08:58:30.220Z,85393.53
2023-05-14T09:00:56.440Z,85398.56
2023-05-14T09:03:22.736Z,85401.56
2023-05-14T09:05:48.887Z,85397.63
2023-05-14T09:08:14.979Z,85403.06
2023-05-14T09:10:41.098Z,85398.22
2023-05-14T09:13:07.187Z,85396.50
2023-05-14T09:15:33.300Z,85391.94
2023-05-14T09:17:59.455Z,85391.78
2023-05-14T09:20:25.998Z,85388.47
2023-05-14T09:22:52.527Z,85385.84
2023-05-14T09:25:18.630Z,85385.00
2023-05-14T09:27:44.738Z,85383.06
2023-05-14T09:30:10.835Z,85383.75
2023-05-14T09:32:36.936Z,85383.38
2023-05-14T09:35:03.062Z,85376.56
2023-05-14T09:37:29.172Z,85380.44
2023-05-14T09:39:55.284Z,85376.63
2023-05-14T09:42:21.405Z,85373.47
2023-05-14T09:44:47.514Z,85366.75
2023-05-14T09:47:13.668Z,85375.22
2023-05-14T09:49:39.820Z,85368.34
2023-05-14T09:52:05.928Z,85370.47
2023-05-14T09:54:32.032Z,85373.44
2023-05-14T09:56:58.150Z,85367.16
2023-05-14T09:59:24.262Z,85371.06
2023-05-14T10:01:50.351Z,85368.31
2023-05-14T10:04:16.530Z,85362.22
2023-05-14T10:06:42.710Z,85365.69
2023-05-14T10:09:08.834Z,85376.78
2023-05-14T10:11:34.924Z,85375.94
2023-05-14T10:14:01.055Z,85373.81
2023-05-14T10:16:27.194Z,85370.34
2023-05-14T10:18:54.516Z,85367.41
2023-05-14T10:21:21.852Z,85362.28
2023-05-14T10:23:47.987Z,85366.47
2023-05-14T10:26:14.129Z,85356.38
2023-05-14T10:28:40.253Z,85357.25
2023-05-14T10:31:06.434Z,85357.38
2023-05-14T10:33:32.588Z,85353.97
2023-05-14T10:35:58.681Z,85341.66
2023-05-14T10:38:24.785Z,85338.53
2023-05-14T10:40:53.557Z,85346.06
2023-05-14T10:43:20.290Z,85332.38
2023-05-14T10:45:46.396Z,85336.66
2023-05-14T10:48:12.589Z,85330.47
2023-05-14T10:50:38.706Z,85332.88
2023-05-14T10:53:04.928Z,85329.22
2023-05-14T10:55:31.168Z,85328.50
2023-05-14T10:57:57.260Z,85331.72
2023-05-14T11:00:23.554Z,85331.84
2023-05-14T11:02:49.841Z,85329.91
2023-05-14T11:05:16.194Z,85332.31
2023-05-14T11:07:42.415Z,85324.81
2023-05-14T11:10:08.507Z,85316.88
2023-05-14T11:12:34.622Z,85316.66
2023-05-14T11:15:00.724Z,85324.69
2023-05-14T11:17:26.863Z,85321.59
2023-05-14T11:19:53.122Z,85320.19
2023-05-14T11:22:19.224Z,85314.16
2023-05-14T11:24:45.338Z,85309.31
2023-05-14T11:27:11.434Z,85303.16
2023-05-14T11:29:37.557Z,85302.38
2023-05-14T11:32:03.825Z,85308.78
2023-05-14T11:34:30.043Z,85314.06
2023-05-14T11:36:56.182Z,85321.81
2023-05-14T11:39:22.299Z,85312.59
2023-05-14T11:41:48.438Z,85311.94
2023-05-14T11:44:14.541Z,85321.47
2023-05-14T11:46:40.724Z,85325.81
2023-05-14T11:49:06.925Z,85319.66
2023-05-14T11:51:33.026Z,85314.88
2023-05-14T11:53:59.112Z,85309.91
2023-05-14T11:56:25.243Z,85308.47
2023-05-14T11:58:51.377Z,85313.72
2023-05-14T12:01:17.518Z,85312.84
2023-05-14T12:03:43.904Z,85295.69
2023-05-14T12:06:10.316Z,85290.19
2023-05-14T12:08:36.519Z,85283.91
2023-05-14T12:11:02.633Z,85279.44
2023-05-14T12:13:28.753Z,85269.28
2023-05-14T12:15:54.900Z,85267.25
2023-05-14T12:18:25.083Z,85265.63
2023-05-14T12:20:51.465Z,85265.00
2023-05-14T12:23:17.563Z,85261.91
2023-05-14T12:25:43.660Z,85258.47
2023-05-14T12:28:09.746Z,85261.47
2023-05-14T12:30:35.988Z,85260.88
2023-05-14T12:33:02.207Z,85255.78
2023-05-14T12:35:28.377Z,85258.25
2023-05-14T12:37:54.473Z,85253.50
2023-05-14T12:40:20.574Z,85258.94
2023-05-14T12:42:46.694Z,85268.28
2023-05-14T12:45:12.814Z,85262.53
2023-05-14T12:47:39.066Z,85257.22
2023-05-14T12:50:05.249Z,85245.50
2023-05-14T12:55:00.333Z,85235.28
2023-05-14T12:57:26.422Z,85229.91
2023-05-14T12:59:52.524Z,85230.34
2023-05-14T13:02:18.696Z,85226.78
2023-05-14T13:04:44.860Z,85224.69
2023-05-14T13:07:11.000Z,85227.25
2023-05-14T13:09:37.103Z,85221.47
2023-05-14T13:12:03.192Z,85221.94
2023-05-14T13:14:29.337Z,85238.28
2023-05-14T13:16:55.591Z,85252.22
2023-05-14T13:19:21.748Z,85243.22
2023-05-14T13:21:47.973Z,85257.50
2023-05-14T13:24:14.059Z,85254.28
2023-05-14T13:26:40.152Z,85265.72
2023-05-14T13:29:06.244Z,85254.81
2023-05-14T13:31:32.373Z,85243.94
2023-05-14T13:33:58.545Z,85251.22
2023-05-14T13:36:24.630Z,85248.81
2023-05-14T13:38:50.716Z,85245.59
2023-05-14T13:41:16.883Z,85250.72
2023-05-14T13:43:43.018Z,85243.47
2023-05-14T13:46:09.143Z,85242.72
2023-05-14T13:48:35.324Z,85240.44
2023-05-14T13:51:01.448Z,85243.81
2023-05-14T13:53:27.574Z,85230.94
2023-05-14T13:55:53.686Z,85235.09
2023-05-14T13:58:19.804Z,85225.84
2023-05-14T14:00:45.933Z,85229.19
2023-05-14T14:03:12.031Z,85228.22
2023-05-14T14:05:38.226Z,85229.31
2023-05-14T14:08:13.111Z,85224.81
2023-05-14T14:10:48.537Z,85224.38
2023-05-14T14:13:14.632Z,85228.84
2023-05-14T14:15:40.729Z,85226.06
2023-05-14T14:18:06.887Z,85224.22
2023-05-14T14:20:33.007Z,85223.66
2023-05-14T14:22:59.083Z,85227.72
2023-05-14T14:25:25.467Z,85219.47
2023-05-14T14:27:51.730Z,85215.97
2023-05-14T14:30:17.844Z,85211.56
2023-05-14T14:32:43.958Z,85222.69
2023-05-14T14:35:10.128Z,85220.38
2023-05-14T14:37:36.276Z,85228.06
2023-05-14T14:40:02.386Z,85231.31
2023-05-14T14:42:28.495Z,85230.59
2023-05-14T14:44:54.584Z,85243.69
2023-05-14T14:47:20.710Z,85239.72
2023-05-14T14:49:46.890Z,85242.03
2023-05-14T14:52:13.145Z,85259.22
2023-05-14T14:54:39.263Z,85245.25
2023-05-14T14:57:05.368Z,85254.34
2023-05-14T14:59:31.456Z,85253.94
2023-05-14T15:01:57.570Z,85250.56
2023-05-14T15:04:23.768Z,85252.50
2023-05-14T15:06:49.930Z,85257.69
2023-05-14T15:09:16.058Z,85256.34
2023-05-14T15:11:42.190Z,85261.06
2023-05-14T15:14:08.313Z,85262.84
2023-05-14T15:16:34.423Z,85254.94
2023-05-14T15:19:00.687Z,85269.16
2023-05-14T15:21:26.877Z,85265.81
2023-05-14T15:23:52.994Z,85264.50
2023-05-14T15:26:19.114Z,85268.28
2023-05-14T15:28:45.224Z,85277.91
2023-05-14T15:31:11.692Z,85287.41
2023-05-14T15:33:37.810Z,85298.28
2023-05-14T15:36:03.947Z,85274.19
2023-05-14T15:38:30.215Z,85276.81
2023-05-14T15:40:56.341Z,85280.88
2023-05-14T15:43:22.478Z,85285.97
2023-05-14T15:45:48.565Z,85277.44
2023-05-14T15:48:14.703Z,85279.84
2023-05-14T15:50:40.919Z,85283.72
2023-05-14T15:53:07.020Z,85283.81
2023-05-14T15:55:33.105Z,85282.75
2023-05-14T15:57:59.213Z,85283.38
2023-05-14T16:00:25.551Z,85286.22
2023-05-14T16:02:51.877Z,85282.25
2023-05-14T16:05:18.054Z,85299.47
2023-05-14T16:07:44.170Z,85292.72
2023-05-14T16:10:10.267Z,85287.81
2023-05-14T16:12:36.387Z,85293.47
2023-05-14T16:15:02.524Z,85298.59
2023-05-14T16:17:28.669Z,85298.13
2023-05-14T16:19:56.244Z,85300.78
2023-05-14T16:22:22.779Z,85300.97
2023-05-14T16:24:48.888Z,85311.91
2023-05-14T16:27:14.992Z,85305.97
2023-05-14T16:29:41.110Z,85310.66
2023-05-14T16:32:07.273Z,85319.63
2023-05-14T16:34:33.449Z,85313.16
2023-05-14T16:36:59.548Z,85307.59
2023-05-14T16:39:25.652Z,85307.81
2023-05-14T16:41:51.767Z,85297.38
2023-05-14T16:44:17.877Z,85305.88
2023-05-14T16:46:44.428Z,85302.16
2023-05-14T16:49:10.563Z,85303.56
2023-05-14T16:51:36.726Z,85310.22
2023-05-14T16:54:02.859Z,85305.47
2023-05-14T16:56:28.955Z,85301.06
2023-05-14T16:58:55.054Z,85294.00
2023-05-14T17:01:21.327Z,85286.16
2023-05-14T17:03:47.451Z,85299.06
2023-05-14T17:06:13.601Z,85301.78
2023-05-14T17:08:39.742Z,85289.41
2023-05-14T17:11:06.102Z,85288.88
2023-05-14T17:13:32.268Z,85299.47
2023-05-14T17:15:58.437Z,85295.75
2023-05-14T17:18:24.573Z,85297.53
2023-05-14T17:20:50.704Z,85290.66
2023-05-14T17:23:19.808Z,85292.25
2023-05-14T17:25:45.889Z,85296.97
2023-05-14T17:28:12.063Z,85305.44
2023-05-14T17:30:38.167Z,85308.59
2023-05-14T17:33:04.420Z,85315.13
2023-05-14T17:35:30.640Z,85317.38
2023-05-14T17:37:57.880Z,85329.56
2023-05-14T17:40:25.019Z,85330.56
2023-05-14T17:42:51.121Z,85331.00
2023-05-14T17:45:17.223Z,85329.56
2023-05-14T17:47:43.547Z,85332.56
2023-05-14T17:50:09.676Z,85340.56
2023-05-14T17:52:35.818Z,85343.63
2023-05-14T17:55:02.072Z,85353.84
2023-05-14T17:57:28.202Z,85353.84
2023-05-14T17:59:54.326Z,85354.75
2023-05-14T18:02:20.429Z,85357.00
2023-05-14T18:04:46.569Z,85354.63
2023-05-14T18:07:12.744Z,85362.03
2023-05-14T18:09:38.833Z,85362.69
2023-05-14T18:12:04.941Z,85363.06
2023-05-14T18:14:31.056Z,85369.81
2023-05-14T18:16:57.226Z,85372.91
2023-05-14T18:19:25.775Z,85373.53
2023-05-14T18:21:51.901Z,85367.31
2023-05-14T18:24:18.049Z,85368.56
2023-05-14T18:26:44.139Z,85372.47
2023-05-14T18:29:10.532Z,85367.41
2023-05-14T18:31:36.686Z,85375.41
2023-05-14T18:34:02.950Z,85375.13
2023-05-14T18:36:29.062Z,85378.50
2023-05-14T18:38:55.187Z,85380.28
2023-05-14T18:41:21.314Z,85385.19
2023-05-14T18:43:47.427Z,85387.34
2023-05-14T18:46:13.597Z,85399.75
2023-05-14T18:48:39.722Z,85395.41
2023-05-14T18:51:05.827Z,85390.06
2023-05-14T18:53:31.931Z,85394.41
2023-05-14T18:55:58.028Z,85390.34
2023-05-14T18:58:24.137Z,85403.91
2023-05-14T19:00:50.259Z,85398.25
2023-05-14T19:03:16.496Z,85402.69
2023-05-14T19:05:42.660Z,85395.53
2023-05-14T19:08:08.766Z,85406.72
2023-05-14T19:10:34.861Z,85404.31
2023-05-14T19:13:00.985Z,85404.03
2023-05-14T19:15:27.167Z,85408.13
2023-05-14T19:17:53.297Z,85416.09
2023-05-14T19:20:19.482Z,85417.72
2023-05-14T19:22:45.642Z,85416.25
2023-05-14T19:25:11.754Z,85417.16
2023-05-14T19:27:37.882Z,85426.34
2023-05-14T19:30:03.998Z,85418.66
2023-05-14T19:32:30.159Z,85422.97
2023-05-14T19:34:56.300Z,85422.25
2023-05-14T19:37:22.397Z,85427.31
2023-05-14T19:39:48.491Z,85430.50
2023-05-14T19:42:14.581Z,85429.44
2023-05-14T19:44:40.702Z,85435.19
2023-05-14T19:47:06.874Z,85438.03
2023-05-14T19:49:33.078Z,85431.03
2023-05-14T19:51:59.200Z,85445.09
2023-05-14T19:54:25.310Z,85441.66
2023-05-14T19:56:51.445Z,85442.41
2023-05-14T19:59:17.565Z,85439.03
2023-05-14T20:01:43.878Z,85440.16
2023-05-14T20:04:10.137Z,85437.66
2023-05-14T20:06:36.232Z,85435.34
2023-05-14T20:09:02.328Z,85441.50
2023-05-14T20:11:28.426Z,85441.72
2023-05-14T20:13:54.553Z,85440.88
2023-05-14T20:16:20.667Z,85450.38
2023-05-14T20:18:46.860Z,85448.00
2023-05-14T20:21:12.996Z,85451.03
2023-05-14T20:23:39.106Z,85447.84
2023-05-14T20:26:05.238Z,85444.00
2023-05-14T20:28:31.352Z,85444.53
2023-05-14T20:30:57.487Z,85444.06
2023-05-14T20:33:23.626Z,85445.53
2023-05-14T20:35:49.760Z,85446.69
2023-05-14T20:38:15.844Z,85440.25
2023-05-14T20:40:42.041Z,85441.66
2023-05-14T20:43:08.136Z,85439.03
2023-05-14T20:45:34.247Z,85440.16
2023-05-14T20:48:00.413Z,85443.84
2023-05-14T20:50:26.531Z,85440.31
2023-05-14T20:52:52.674Z,85444.28
2023-05-14T20:55:18.788Z,85443.66
2023-05-14T20:57:44.875Z,85441.94
2023-05-14T21:00:11.012Z,85450.63
2023-05-14T21:02:37.287Z,85441.22
2023-05-14T21:05:03.697Z,85437.47
2023-05-14T21:07:29.828Z,85445.66
2023-05-14T21:09:55.935Z,85447.13
2023-05-14T21:12:22.079Z,85444.09
2023-05-14T21:14:48.167Z,85440.25
2023-05-14T21:17:14.268Z,85443.28
2023-05-14T21:19:40.371Z,85433.88
2023-05-14T21:22:06.496Z,85429.50
2023-05-14T21:24:32.614Z,85437.56
2023-05-14T21:26:58.728Z,85432.47
2023-05-14T21:29:24.842Z,85420.84
2023-05-14T21:31:50.984Z,85423.25
2023-05-14T21:34:17.136Z,85420.97
2023-05-14T21:36:43.274Z,85419.63
2023-05-14T21:39:09.364Z,85414.47
2023-05-14T21:41:35.477Z,85422.88
2023-05-14T21:44:01.602Z,85422.59
2023-05-14T21:46:27.690Z,85425.53
2023-05-14T21:48:53.886Z,85419.69
2023-05-14T21:51:20.115Z,85426.81
2023-05-14T21:53:46.204Z,85422.56
2023-05-14T21:56:12.317Z,85422.38
2023-05-14T21:58:38.411Z,85422.09
2023-05-14T22:01:04.588Z,85421.22
2023-05-14T22:03:30.843Z,85416.38
2023-05-14T22:05:57.092Z,85417.88
2023-05-14T22:08:23.203Z,85422.16
2023-05-14T22:10:49.316Z,85417.19
2023-05-14T22:13:15.424Z,85415.16
2023-05-14T22:15:41.570Z,85415.72
2023-05-14T22:18:07.820Z,85412.28
2023-05-14T22:20:34.097Z,85413.63
2023-05-14T22:23:00.203Z,85415.41
2023-05-14T22:25:26.599Z,85415.22
2023-05-14T22:27:52.958Z,85413.22
2023-05-14T22:30:19.080Z,85405.94
2023-05-14T22:32:45.213Z,85414.06
2023-05-14T22:35:11.362Z,85414.78
2023-05-14T22:37:37.452Z,85412.75
2023-05-14T22:40:03.553Z,85415.25
2023-05-14T22:42:29.665Z,85407.72
2023-05-14T22:44:55.745Z,85411.00
2023-05-14T22:47:21.902Z,85423.53
2023-05-14T22:49:48.041Z,85417.50
2023-05-14T22:52:14.153Z,85422.97
2023-05-14T22:54:40.280Z,85418.72
2023-05-14T22:57:06.393Z,85427.84
2023-05-14T22:59:32.499Z,85424.00
2023-05-14T23:01:58.627Z,85425.59
2023-05-14T23:04:24.793Z,85419.19
2023-05-14T23:06:50.937Z,85415.75
2023-05-14T23:09:17.033Z,85419.94
2023-05-14T23:11:43.160Z,85414.81
2023-05-14T23:14:09.321Z,85416.66
2023-05-14T23:16:35.650Z,85420.91
2023-05-14T23:19:01.885Z,85413.53
2023-05-14T23:21:28.130Z,85405.88
2023-05-14T23:23:54.215Z,85405.63
2023-05-14T23:26:20.342Z,85402.94
2023-05-14T23:28:46.595Z,85406.47
2023-05-14T23:31:12.725Z,85403.19
2023-05-14T23:33:38.832Z,85404.19
2023-05-14T23:36:05.060Z,85395.97
2023-05-14T23:38:31.164Z,85402.00
2023-05-14T23:40:57.278Z,85399.38
2023-05-14T23:43:23.396Z,85393.41
2023-05-14T23:45:49.551Z,85389.88
2023-05-14T23:48:15.728Z,85393.91
2023-05-14T23:50:41.833Z,85388.66
2023-05-14T23:53:07.938Z,85385.72
2023-05-14T23:55:34.039Z,85386.97
2023-05-14T23:58:00.132Z,85389.03
